createdAt,value
2023-05-03T00:01:30.979Z,6.33
2023-05-03T00:04:00.059Z,6.36
2023-05-03T00:06:28.051Z,6.36
2023-05-03T00:08:56.030Z,6.36
2023-05-03T00:11:23.870Z,6.33
2023-05-03T00:13:51.672Z,6.30
2023-05-03T00:16:20.202Z,6.24
2023-05-03T00:18:50.238Z,6.19
2023-05-03T00:21:19.416Z,6.21
2023-05-03T00:23:47.311Z,6.21
2023-05-03T00:26:15.082Z,6.18
2023-05-03T00:28:42.976Z,6.21
2023-05-03T00:35:01.748Z,6.21
2023-05-03T00:37:30.922Z,6.25
2023-05-03T00:39:58.693Z,6.27
2023-05-03T00:42:26.522Z,6.26
2023-05-03T00:44:56.141Z,6.23
2023-05-03T00:47:24.092Z,6.18
2023-05-03T00:49:52.185Z,6.13
2023-05-03T00:52:19.921Z,6.08
2023-05-03T00:54:49.102Z,6.00
2023-05-03T00:57:17.016Z,5.92
2023-05-03T00:59:44.936Z,5.88
2023-05-03T01:02:12.816Z,5.83
2023-05-03T01:04:43.354Z,5.75
2023-05-03T01:07:18.456Z,5.61
2023-05-03T01:09:54.175Z,5.53
2023-05-03T01:12:31.921Z,5.40
2023-05-03T01:15:07.148Z,5.29
2023-05-03T01:17:37.789Z,5.21
2023-05-03T01:20:08.754Z,5.14
2023-05-03T01:22:44.829Z,5.10
2023-05-03T01:25:16.194Z,5.05
2023-05-03T01:27:44.376Z,5.01
2023-05-03T01:30:13.409Z,4.97
2023-05-03T01:32:52.325Z,4.97
2023-05-03T01:35:24.859Z,5.03
2023-05-03T01:37:53.256Z,5.08
2023-05-03T01:40:23.233Z,5.12
2023-05-03T01:42:51.822Z,5.12
2023-05-03T01:45:19.913Z,5.13
2023-05-03T01:47:47.745Z,5.12
2023-05-03T01:50:15.561Z,5.10
2023-05-03T01:52:44.944Z,5.10
2023-05-03T01:55:12.478Z,5.01
2023-05-03T01:57:41.645Z,5.05
2023-05-03T02:00:10.866Z,5.06
2023-05-03T02:02:38.667Z,5.05
2023-05-03T02:05:07.429Z,5.03
2023-05-03T02:07:35.159Z,4.99
2023-05-03T02:10:03.254Z,4.90
2023-05-03T02:12:31.197Z,4.84
2023-05-03T02:15:00.687Z,4.76
2023-05-03T02:17:29.037Z,4.68
2023-05-03T02:19:57.151Z,4.61
2023-05-03T02:22:25.343Z,4.58
2023-05-03T02:24:53.178Z,4.55
2023-05-03T02:27:21.008Z,4.54
2023-05-03T02:29:48.801Z,4.51
2023-05-03T02:32:17.902Z,4.46
2023-05-03T02:34:46.116Z,4.38
2023-05-03T02:37:13.959Z,4.41
2023-05-03T02:39:41.944Z,4.35
2023-05-03T02:42:09.703Z,4.39
2023-05-03T02:44:39.481Z,4.39
2023-05-03T02:47:07.576Z,4.38
2023-05-03T02:49:36.756Z,4.40
2023-05-03T02:52:04.620Z,4.41
2023-05-03T02:54:32.456Z,4.39
2023-05-03T02:57:01.821Z,4.38
2023-05-03T02:59:29.781Z,4.31
2023-05-03T03:01:57.635Z,4.33
2023-05-03T03:04:26.198Z,4.34
2023-05-03T03:06:56.759Z,4.32
2023-05-03T03:09:24.635Z,4.39
2023-05-03T03:11:52.799Z,4.41
2023-05-03T03:14:20.571Z,4.43
2023-05-03T03:16:48.361Z,4.43
2023-05-03T03:19:16.309Z,4.43
2023-05-03T03:21:44.142Z,4.42
2023-05-03T03:24:15.786Z,4.41
2023-05-03T03:26:43.532Z,4.44
2023-05-03T03:29:11.417Z,4.45
2023-05-03T03:31:39.332Z,4.37
2023-05-03T03:34:07.175Z,4.45
2023-05-03T03:36:37.111Z,4.44
2023-05-03T03:39:05.097Z,4.44
2023-05-03T03:41:34.660Z,4.43
2023-05-03T03:44:02.556Z,4.44
2023-05-03T03:46:30.830Z,4.45
2023-05-03T03:48:58.600Z,4.44
2023-05-03T03:51:26.904Z,4.45
2023-05-03T03:53:54.730Z,4.43
2023-05-03T03:56:23.829Z,4.39
2023-05-03T03:58:53.006Z,4.37
2023-05-03T04:01:21.138Z,4.32
2023-05-03T04:03:48.914Z,4.31
2023-05-03T04:06:16.809Z,4.28
2023-05-03T04:08:44.608Z,4.29
2023-05-03T04:11:13.226Z,4.30
2023-05-03T04:13:41.025Z,4.33
2023-05-03T04:16:10.224Z,4.39
2023-05-03T04:18:38.045Z,4.42
2023-05-03T04:21:06.145Z,4.48
2023-05-03T04:23:33.931Z,4.57
2023-05-03T04:26:02.630Z,4.65
2023-05-03T04:28:33.004Z,4.73
2023-05-03T04:31:00.837Z,4.79
2023-05-03T04:33:31.347Z,4.87
2023-05-03T04:35:59.084Z,4.94
2023-05-03T04:38:26.977Z,5.02
2023-05-03T04:40:54.794Z,5.13
2023-05-03T04:43:23.336Z,5.21
2023-05-03T04:45:53.138Z,5.24
2023-05-03T04:48:21.045Z,5.30
2023-05-03T04:50:50.204Z,5.31
2023-05-03T04:53:20.431Z,5.33
2023-05-03T04:55:48.448Z,5.36
2023-05-03T04:58:16.292Z,5.41
2023-05-03T05:00:44.058Z,5.49
2023-05-03T05:03:12.009Z,5.55
2023-05-03T05:05:39.949Z,5.57
2023-05-03T05:08:09.025Z,5.63
2023-05-03T05:10:39.005Z,5.70
2023-05-03T05:13:06.787Z,5.79
2023-05-03T05:15:34.737Z,5.90
2023-05-03T05:18:02.542Z,5.98
2023-05-03T05:20:30.304Z,6.07
2023-05-03T05:22:58.103Z,6.13
2023-05-03T05:25:27.305Z,6.24
2023-05-03T05:27:56.389Z,6.30
2023-05-03T05:30:24.410Z,6.43
2023-05-03T05:32:52.236Z,6.50
2023-05-03T05:35:20.106Z,6.60
2023-05-03T05:37:47.872Z,6.66
2023-05-03T05:40:16.026Z,6.80
2023-05-03T05:42:46.264Z,6.86
2023-05-03T05:45:14.003Z,7.01
2023-05-03T05:47:41.814Z,7.14
2023-05-03T05:50:17.563Z,7.28
2023-05-03T05:52:46.218Z,7.38
2023-05-03T05:55:15.822Z,7.48
2023-05-03T05:57:44.918Z,7.58
2023-05-03T06:00:15.515Z,7.69
2023-05-03T06:02:43.834Z,7.80
2023-05-03T06:05:11.914Z,7.89
2023-05-03T06:07:39.729Z,8.03
2023-05-03T06:10:08.640Z,8.09
2023-05-03T06:12:36.513Z,8.24
2023-05-03T06:15:07.212Z,8.22
2023-05-03T06:17:35.032Z,8.36
2023-05-03T06:20:04.551Z,8.44
2023-05-03T06:22:32.722Z,8.51
2023-05-03T06:25:02.031Z,8.55
2023-05-03T06:27:29.534Z,8.50
2023-05-03T06:29:57.259Z,8.71
2023-05-03T06:32:26.466Z,8.80
2023-05-03T06:34:54.241Z,9.06
2023-05-03T06:37:23.378Z,9.19
2023-05-03T06:39:51.526Z,9.26
2023-05-03T06:42:19.305Z,9.36
2023-05-03T06:44:48.262Z,9.52
2023-05-03T06:47:18.022Z,9.66
2023-05-03T06:49:47.192Z,9.69
2023-05-03T06:52:15.110Z,9.79
2023-05-03T06:54:42.895Z,9.83
2023-05-03T06:57:11.006Z,10.00
2023-05-03T06:59:38.720Z,9.98
2023-05-03T07:02:07.011Z,9.98
2023-05-03T07:04:34.788Z,10.06
2023-05-03T07:07:03.925Z,10.09
2023-05-03T07:09:42.583Z,10.22
2023-05-03T07:12:12.144Z,10.20
2023-05-03T07:14:40.199Z,10.28
2023-05-03T07:17:08.011Z,10.32
2023-05-03T07:19:37.204Z,10.49
2023-05-03T07:22:06.192Z,10.40
2023-05-03T07:24:33.966Z,10.71
2023-05-03T07:27:02.178Z,10.73
2023-05-03T07:29:29.946Z,10.70
2023-05-03T07:31:57.733Z,10.75
2023-05-03T07:34:25.544Z,10.74
2023-05-03T07:36:53.573Z,10.66
2023-05-03T07:39:22.688Z,10.70
2023-05-03T07:41:50.607Z,10.87
2023-05-03T07:44:18.413Z,10.91
2023-05-03T07:46:46.137Z,11.03
2023-05-03T07:49:13.954Z,11.14
2023-05-03T07:51:42.598Z,12.89
2023-05-03T07:54:10.372Z,15.43
2023-05-03T07:56:41.083Z,16.69
2023-05-03T07:59:10.325Z,17.85
2023-05-03T08:01:38.677Z,18.32
2023-05-03T08:04:06.899Z,18.44
2023-05-03T08:06:36.490Z,19.37
2023-05-03T08:09:04.899Z,19.43
2023-05-03T08:11:32.799Z,19.75
2023-05-03T08:14:01.980Z,19.89
2023-05-03T08:16:29.865Z,20.41
2023-05-03T08:18:57.641Z,20.29
2023-05-03T08:21:26.226Z,20.41
2023-05-03T08:23:54.656Z,18.83
2023-05-03T08:26:24.205Z,18.44
2023-05-03T08:28:52.063Z,19.15
2023-05-03T08:31:21.430Z,19.36
2023-05-03T08:33:49.285Z,19.09
2023-05-03T08:36:17.119Z,17.94
2023-05-03T08:38:45.110Z,18.41
2023-05-03T08:41:20.366Z,18.21
2023-05-03T08:43:52.904Z,18.38
2023-05-03T08:46:22.174Z,17.90
2023-05-03T08:48:51.123Z,18.06
2023-05-03T08:51:18.922Z,17.96
2023-05-03T08:53:47.238Z,17.79
2023-05-03T08:56:21.519Z,17.57
2023-05-03T08:58:49.232Z,17.94
2023-05-03T09:01:16.952Z,17.45
2023-05-03T09:03:50.634Z,17.06
2023-05-03T09:06:22.283Z,16.95
2023-05-03T09:08:50.203Z,17.35
2023-05-03T09:11:25.044Z,17.20
2023-05-03T09:13:53.611Z,17.11
2023-05-03T09:16:29.925Z,16.71
2023-05-03T09:19:00.720Z,15.82
2023-05-03T09:21:28.997Z,15.62
2023-05-03T09:23:56.779Z,15.08
2023-05-03T09:26:31.770Z,15.13
2023-05-03T09:29:01.357Z,15.16
2023-05-03T09:31:29.752Z,15.63
2023-05-03T09:33:59.232Z,15.59
2023-05-03T09:36:28.342Z,15.95
2023-05-03T09:38:56.630Z,15.95
2023-05-03T09:41:30.848Z,15.59
2023-05-03T09:44:02.951Z,15.91
2023-05-03T09:46:32.462Z,15.60
2023-05-03T09:49:01.767Z,15.70
2023-05-03T09:51:31.889Z,16.01
2023-05-03T09:54:00.223Z,15.78
2023-05-03T09:56:28.075Z,15.54
2023-05-03T09:58:55.791Z,15.25
2023-05-03T10:01:25.495Z,15.12
2023-05-03T10:03:54.411Z,15.30
2023-05-03T10:06:28.072Z,15.38
2023-05-03T10:09:02.221Z,15.22
2023-05-03T10:11:30.185Z,15.19
2023-05-03T10:13:57.999Z,15.06
2023-05-03T10:16:29.137Z,15.37
2023-05-03T10:19:01.561Z,15.50
2023-05-03T10:21:39.588Z,15.36
2023-05-03T10:24:11.490Z,15.60
2023-05-03T10:26:41.432Z,15.87
2023-05-03T10:29:46.122Z,16.02
2023-05-03T10:32:29.769Z,16.25
2023-05-03T10:34:59.626Z,16.45
2023-05-03T10:37:29.170Z,16.42
2023-05-03T10:39:59.130Z,16.77
2023-05-03T10:42:27.346Z,16.80
2023-05-03T10:44:56.200Z,16.66
2023-05-03T10:47:24.850Z,16.49
2023-05-03T10:50:30.143Z,16.09
2023-05-03T10:52:59.281Z,16.64
2023-05-03T10:55:27.980Z,16.48
2023-05-03T10:57:58.698Z,16.63
2023-05-03T11:00:32.296Z,16.31
2023-05-03T11:03:10.989Z,16.26
2023-05-03T11:05:39.439Z,16.31
2023-05-03T11:08:13.082Z,16.30
2023-05-03T11:10:41.178Z,16.57
2023-05-03T11:13:08.980Z,17.00
2023-05-03T11:15:37.122Z,16.76
2023-05-03T11:20:43.612Z,16.73
2023-05-03T11:23:13.339Z,16.64
2023-05-03T11:25:41.749Z,16.72
2023-05-03T11:28:09.724Z,16.93
2023-05-03T11:30:38.347Z,16.84
2023-05-03T11:33:07.016Z,17.13
2023-05-03T11:35:34.833Z,17.36
2023-05-03T11:38:03.063Z,17.37
2023-05-03T11:40:32.315Z,17.76
2023-05-03T11:43:04.000Z,17.99
2023-05-03T11:45:34.076Z,18.02
2023-05-03T11:48:02.087Z,17.59
2023-05-03T11:50:45.794Z,17.03
2023-05-03T11:53:13.760Z,16.89
2023-05-03T11:55:46.222Z,16.65
2023-05-03T11:58:14.792Z,16.89
2023-05-03T12:00:45.208Z,17.06
2023-05-03T12:03:18.300Z,17.02
2023-05-03T12:05:48.357Z,17.00
2023-05-03T12:08:21.086Z,16.89
2023-05-03T12:10:54.909Z,16.84
2023-05-03T12:13:33.114Z,16.51
2023-05-03T12:16:11.882Z,16.61
2023-05-03T12:18:51.054Z,16.48
2023-05-03T12:23:51.779Z,16.85
2023-05-03T12:26:21.478Z,16.41
2023-05-03T12:28:50.059Z,16.93
2023-05-03T12:31:18.630Z,17.04
2023-05-03T12:34:02.291Z,17.30
2023-05-03T12:36:37.390Z,17.76
2023-05-03T12:39:09.388Z,17.94
2023-05-03T12:44:10.599Z,17.83
2023-05-03T12:46:39.174Z,17.64
2023-05-03T12:49:08.939Z,17.74
2023-05-03T12:51:41.950Z,17.63
2023-05-03T12:54:11.639Z,17.67
2023-05-03T12:56:41.594Z,17.60
2023-05-03T13:04:44.102Z,17.51
2023-05-03T13:07:00.671Z,17.56
2023-05-03T13:09:46.176Z,17.88
2023-05-03T13:12:22.976Z,17.84
2023-05-03T13:14:51.290Z,17.83
2023-05-03T13:17:20.649Z,17.96
2023-05-03T13:19:48.563Z,18.19
2023-05-03T13:22:17.217Z,18.19
2023-05-03T13:24:46.400Z,17.79
2023-05-03T13:27:14.164Z,17.56
2023-05-03T13:29:43.398Z,17.71
2023-05-03T13:32:12.439Z,17.82
2023-05-03T13:34:40.292Z,17.89
2023-05-03T13:37:08.010Z,17.87
2023-05-03T13:39:35.758Z,17.92
2023-05-03T13:42:03.611Z,18.09
2023-05-03T13:44:31.382Z,18.50
2023-05-03T13:47:01.431Z,18.55
2023-05-03T13:49:29.222Z,18.67
2023-05-03T13:51:57.288Z,18.38
2023-05-03T13:54:25.400Z,18.64
2023-05-03T13:56:53.213Z,18.45
2023-05-03T13:59:21.065Z,18.32
2023-05-03T14:01:49.202Z,18.30
2023-05-03T14:04:19.916Z,18.46
2023-05-03T14:06:48.087Z,18.74
2023-05-03T14:09:15.985Z,18.79
2023-05-03T14:11:43.823Z,18.53
2023-05-03T14:14:11.580Z,18.80
2023-05-03T14:16:41.982Z,18.72
2023-05-03T14:19:11.665Z,18.74
2023-05-03T14:21:43.324Z,18.91
2023-05-03T14:24:11.101Z,19.00
2023-05-03T14:26:38.935Z,18.65
2023-05-03T14:29:11.348Z,18.62
2023-05-03T14:31:39.179Z,18.67
2023-05-03T14:34:06.958Z,18.74
2023-05-03T14:36:38.529Z,18.74
2023-05-03T14:39:07.763Z,18.81
2023-05-03T14:41:36.262Z,18.55
2023-05-03T14:44:04.079Z,18.72
2023-05-03T14:46:31.877Z,18.48
2023-05-03T14:49:01.506Z,18.51
2023-05-03T14:51:29.292Z,18.48
2023-05-03T14:53:57.099Z,18.41
2023-05-03T14:56:26.211Z,18.33
2023-05-03T14:58:54.017Z,18.35
2023-05-03T15:01:22.408Z,18.38
2023-05-03T15:03:50.642Z,18.33
2023-05-03T15:06:23.990Z,18.37
2023-05-03T15:08:52.384Z,18.52
2023-05-03T15:11:20.118Z,18.75
2023-05-03T15:13:50.067Z,19.06
2023-05-03T15:16:17.945Z,19.07
2023-05-03T15:18:48.163Z,18.99
2023-05-03T15:21:16.762Z,18.86
2023-05-03T15:23:45.022Z,18.97
2023-05-03T15:26:13.194Z,18.87
2023-05-03T15:28:40.955Z,18.49
2023-05-03T15:31:10.160Z,18.29
2023-05-03T15:33:41.877Z,17.99
2023-05-03T15:36:10.496Z,17.82
2023-05-03T15:38:38.941Z,17.78
2023-05-03T15:41:07.903Z,17.82
2023-05-03T15:43:35.833Z,17.65
2023-05-03T15:46:03.674Z,17.65
2023-05-03T15:48:32.868Z,17.61
2023-05-03T15:51:00.763Z,17.69
2023-05-03T15:53:28.672Z,17.65
2023-05-03T15:55:57.656Z,17.48
2023-05-03T15:58:25.345Z,17.03
2023-05-03T16:00:55.482Z,17.16
2023-05-03T16:03:26.018Z,17.15
2023-05-03T16:05:56.700Z,17.13
2023-05-03T16:08:24.562Z,17.06
2023-05-03T16:10:52.467Z,17.08
2023-05-03T16:13:20.464Z,17.13
2023-05-03T16:15:52.342Z,17.17
2023-05-03T16:18:20.550Z,17.07
2023-05-03T16:20:48.348Z,17.07
2023-05-03T16:23:17.531Z,17.03
2023-05-03T16:25:45.273Z,16.98
2023-05-03T16:28:13.068Z,16.95
2023-05-03T16:30:41.094Z,16.90
2023-05-03T16:33:09.008Z,16.86
2023-05-03T16:35:36.841Z,16.88
2023-05-03T16:38:04.629Z,16.89
2023-05-03T16:40:40.226Z,16.90
2023-05-03T16:43:08.523Z,16.93
2023-05-03T16:45:37.463Z,16.97
2023-05-03T16:48:07.505Z,16.69
2023-05-03T16:50:37.163Z,16.91
2023-05-03T16:53:05.034Z,16.96
2023-05-03T16:55:34.367Z,16.85
2023-05-03T16:58:02.087Z,16.82
2023-05-03T17:00:36.242Z,16.73
2023-05-03T17:03:04.288Z,16.67
2023-05-03T17:05:33.372Z,16.64
2023-05-03T17:08:01.399Z,16.65
2023-05-03T17:10:29.854Z,16.61
2023-05-03T17:13:01.313Z,16.59
2023-05-03T17:15:29.249Z,16.63
2023-05-03T17:17:57.085Z,16.60
2023-05-03T17:20:24.954Z,16.61
2023-05-03T17:22:54.271Z,16.60
2023-05-03T17:25:22.324Z,16.48
2023-05-03T17:27:51.842Z,16.45
2023-05-03T17:30:21.536Z,16.32
2023-05-03T17:32:49.617Z,16.30
2023-05-03T17:35:17.462Z,16.32
2023-05-03T17:37:45.955Z,16.26
2023-05-03T17:40:14.460Z,16.25
2023-05-03T17:42:42.247Z,16.24
2023-05-03T17:45:11.339Z,16.28
2023-05-03T17:47:40.325Z,16.10
2023-05-03T17:50:09.625Z,16.21
2023-05-03T17:52:37.793Z,16.18
2023-05-03T17:55:06.455Z,16.17
2023-05-03T17:57:34.309Z,16.02
2023-05-03T18:00:02.254Z,16.03
2023-05-03T18:02:31.117Z,15.94
2023-05-03T18:05:00.286Z,15.83
2023-05-03T18:07:27.926Z,15.63
2023-05-03T18:09:56.637Z,15.70
2023-05-03T18:12:24.471Z,15.64
2023-05-03T18:14:59.277Z,15.57
2023-05-03T18:17:27.227Z,15.51
2023-05-03T18:19:55.071Z,15.48
2023-05-03T18:22:27.506Z,15.34
2023-05-03T18:24:55.698Z,15.24
2023-05-03T18:27:23.544Z,15.18
2023-05-03T18:29:51.383Z,15.15
2023-05-03T18:32:19.164Z,15.08
2023-05-03T18:34:46.947Z,15.00
2023-05-03T18:37:14.764Z,14.89
2023-05-03T18:39:44.248Z,14.81
2023-05-03T18:42:12.876Z,14.72
2023-05-03T18:44:40.752Z,14.65
2023-05-03T18:47:10.136Z,14.63
2023-05-03T18:49:38.003Z,14.59
2023-05-03T18:52:06.146Z,14.47
2023-05-03T18:54:33.952Z,14.45
2023-05-03T18:57:03.060Z,14.33
2023-05-03T18:59:30.730Z,14.27
2023-05-03T19:01:58.487Z,14.27
2023-05-03T19:04:26.307Z,14.21
2023-05-03T19:06:54.056Z,14.16
2023-05-03T19:09:21.826Z,14.11
2023-05-03T19:11:50.275Z,14.03
2023-05-03T19:14:19.485Z,13.96
2023-05-03T19:16:47.088Z,13.78
2023-05-03T19:19:15.590Z,13.80
2023-05-03T19:21:43.828Z,13.78
2023-05-03T19:24:13.067Z,13.72
2023-05-03T19:26:40.803Z,13.58
2023-05-03T19:29:09.043Z,13.63
2023-05-03T19:31:38.410Z,13.50
2023-05-03T19:34:08.170Z,13.57
2023-05-03T19:36:35.958Z,13.56
2023-05-03T19:39:03.837Z,13.53
2023-05-03T19:41:31.682Z,13.51
2023-05-03T19:43:59.459Z,13.48
2023-05-03T19:46:28.784Z,13.44
2023-05-03T19:48:58.007Z,13.41
2023-05-03T19:51:25.621Z,13.32
2023-05-03T19:53:53.630Z,13.35
2023-05-03T19:56:22.023Z,13.34
2023-05-03T19:58:50.700Z,13.29
2023-05-03T20:01:18.605Z,13.23
2023-05-03T20:03:46.761Z,13.18
2023-05-03T20:06:16.019Z,13.10
2023-05-03T20:08:43.626Z,12.95
2023-05-03T20:11:11.533Z,12.92
2023-05-03T20:13:39.324Z,12.90
2023-05-03T20:16:08.350Z,12.85
2023-05-03T20:18:36.066Z,12.67
2023-05-03T20:21:04.320Z,12.70
2023-05-03T20:23:38.273Z,12.66
2023-05-03T20:26:08.612Z,12.64
2023-05-03T20:28:36.367Z,12.63
2023-05-03T20:31:05.004Z,12.64
2023-05-03T20:33:33.826Z,12.58
2023-05-03T20:36:01.688Z,12.55
2023-05-03T20:38:29.457Z,12.58
2023-05-03T20:40:58.608Z,12.56
2023-05-03T20:43:26.448Z,12.56
2023-05-03T20:45:54.499Z,12.58
2023-05-03T20:48:22.486Z,12.55
2023-05-03T20:50:51.002Z,12.52
2023-05-03T20:53:19.279Z,12.47
2023-05-03T20:55:46.999Z,12.41
2023-05-03T20:58:16.387Z,12.42
2023-05-03T21:00:45.331Z,12.34
2023-05-03T21:03:13.255Z,12.32
2023-05-03T21:05:41.163Z,12.29
2023-05-03T21:08:08.893Z,12.30
2023-05-03T21:10:36.676Z,12.28
2023-05-03T21:13:04.638Z,12.21
2023-05-03T21:15:33.824Z,12.18
2023-05-03T21:18:06.307Z,12.15
2023-05-03T21:20:35.244Z,12.11
2023-05-03T21:23:02.987Z,12.05
2023-05-03T21:25:31.084Z,12.03
2023-05-03T21:27:58.903Z,12.01
2023-05-03T21:30:26.811Z,11.99
2023-05-03T21:32:55.986Z,11.95
2023-05-03T21:35:23.577Z,11.89
2023-05-03T21:37:51.388Z,11.90
2023-05-03T21:40:19.365Z,11.89
2023-05-03T21:42:47.268Z,11.86
2023-05-03T21:45:15.156Z,11.84
2023-05-03T21:47:42.968Z,11.83
2023-05-03T21:50:12.859Z,11.78
2023-05-03T21:52:41.100Z,11.72
2023-05-03T21:55:09.817Z,11.71
2023-05-03T21:57:39.919Z,11.67
2023-05-03T22:00:14.068Z,11.63
2023-05-03T22:02:41.864Z,11.59
2023-05-03T22:05:10.338Z,11.59
2023-05-03T22:07:39.468Z,11.56
2023-05-03T22:10:10.486Z,11.56
2023-05-03T22:12:38.490Z,11.54
2023-05-03T22:15:10.413Z,11.49
2023-05-03T22:17:38.211Z,11.42
2023-05-03T22:20:07.507Z,11.42
2023-05-03T22:22:35.457Z,11.37
2023-05-03T22:25:04.862Z,11.38
2023-05-03T22:27:33.787Z,11.35
2023-05-03T22:30:01.607Z,11.32
2023-05-03T22:32:29.467Z,11.30
2023-05-03T22:35:03.561Z,11.22
2023-05-03T22:37:31.318Z,11.18
2023-05-03T22:39:59.017Z,11.16
2023-05-03T22:42:28.098Z,11.14
2023-05-03T22:44:57.033Z,11.13
2023-05-03T22:47:25.378Z,11.07
2023-05-03T22:49:53.312Z,11.09
2023-05-03T22:52:21.325Z,11.10
2023-05-03T22:54:49.028Z,11.07
2023-05-03T22:57:16.776Z,11.08
2023-05-03T22:59:47.123Z,11.02
2023-05-03T23:02:14.923Z,11.07
2023-05-03T23:04:42.646Z,11.05
2023-05-03T23:07:10.535Z,11.07
2023-05-03T23:09:38.279Z,11.06
2023-05-03T23:12:06.386Z,11.06
2023-05-03T23:14:34.564Z,11.02
2023-05-03T23:17:03.674Z,10.98
2023-05-03T23:19:31.382Z,10.97
2023-05-03T23:21:59.098Z,11.02
2023-05-03T23:24:26.828Z,11.04
2023-05-03T23:26:54.515Z,11.05
2023-05-03T23:29:23.143Z,11.07
2023-05-03T23:31:51.573Z,10.98
2023-05-03T23:34:21.272Z,11.01
2023-05-03T23:36:48.787Z,10.91
2023-05-03T23:39:16.516Z,10.98
2023-05-03T23:41:44.228Z,11.03
2023-05-03T23:44:14.001Z,11.02
2023-05-03T23:46:41.777Z,10.99
2023-05-03T23:49:09.624Z,10.99
2023-05-03T23:51:38.718Z,10.96
2023-05-03T23:54:06.938Z,10.93
2023-05-03T23:56:34.636Z,10.93
2023-05-03T23:59:03.721Z,10.93
